sensor_id;sensor_type;location;lat;lon;timestamp;P1;durP1;ratioP1;P2;durP2;ratioP2
14247;SDS011;7208;49.826;6.004;2022-08-19T00:01:29;12.30;;;11.00;;
14247;SDS011;7208;49.826;6.004;2022-08-19T00:03:56;10.97;;;10.03;;
14247;SDS011;7208;49.826;6.004;2022-08-19T00:06:22;12.63;;;11.53;;
14247;SDS011;7208;49.826;6.004;2022-08-19T00:08:48;12.50;;;11.30;;
14247;SDS011;7208;49.826;6.004;2022-08-19T00:11:16;12.03;;;10.70;;
14247;SDS011;7208;49.826;6.004;2022-08-19T00:13:42;12.73;;;11.47;;
14247;SDS011;7208;49.826;6.004;2022-08-19T00:16:08;11.87;;;10.60;;
14247;SDS011;7208;49.826;6.004;2022-08-19T00:18:34;12.83;;;11.73;;
14247;SDS011;7208;49.826;6.004;2022-08-19T00:21:00;13.90;;;12.70;;
14247;SDS011;7208;49.826;6.004;2022-08-19T00:23:27;14.03;;;12.53;;
14247;SDS011;7208;49.826;6.004;2022-08-19T00:25:53;13.83;;;12.43;;
14247;SDS011;7208;49.826;6.004;2022-08-19T00:28:19;13.33;;;11.93;;
14247;SDS011;7208;49.826;6.004;2022-08-19T00:30:45;13.30;;;11.73;;
14247;SDS011;7208;49.826;6.004;2022-08-19T00:33:11;13.03;;;11.83;;
14247;SDS011;7208;49.826;6.004;2022-08-19T00:35:38;14.23;;;12.90;;
14247;SDS011;7208;49.826;6.004;2022-08-19T00:38:04;13.23;;;12.13;;
14247;SDS011;7208;49.826;6.004;2022-08-19T00:40:31;14.87;;;13.53;;
14247;SDS011;7208;49.826;6.004;2022-08-19T00:42:58;13.87;;;12.47;;
14247;SDS011;7208;49.826;6.004;2022-08-19T00:45:25;13.63;;;12.33;;
14247;SDS011;7208;49.826;6.004;2022-08-19T00:47:51;15.07;;;12.30;;
14247;SDS011;7208;49.826;6.004;2022-08-19T00:50:18;13.03;;;11.93;;
14247;SDS011;7208;49.826;6.004;2022-08-19T00:52:46;14.00;;;12.80;;
14247;SDS011;7208;49.826;6.004;2022-08-19T00:55:18;13.03;;;11.93;;
14247;SDS011;7208;49.826;6.004;2022-08-19T00:57:46;14.03;;;12.50;;
14247;SDS011;7208;49.826;6.004;2022-08-19T01:00:14;13.27;;;12.07;;
14247;SDS011;7208;49.826;6.004;2022-08-19T01:02:41;13.93;;;12.30;;
14247;SDS011;7208;49.826;6.004;2022-08-19T01:05:15;14.47;;;12.70;;
14247;SDS011;7208;49.826;6.004;2022-08-19T01:07:43;14.30;;;13.00;;
14247;SDS011;7208;49.826;6.004;2022-08-19T01:10:11;14.47;;;13.03;;
14247;SDS011;7208;49.826;6.004;2022-08-19T01:12:38;14.17;;;12.83;;
14247;SDS011;7208;49.826;6.004;2022-08-19T01:15:09;14.20;;;12.83;;
14247;SDS011;7208;49.826;6.004;2022-08-19T01:17:36;13.60;;;12.30;;
14247;SDS011;7208;49.826;6.004;2022-08-19T01:20:04;14.33;;;12.83;;
14247;SDS011;7208;49.826;6.004;2022-08-19T01:22:34;13.67;;;12.47;;
14247;SDS011;7208;49.826;6.004;2022-08-19T01:25:03;13.67;;;12.37;;
14247;SDS011;7208;49.826;6.004;2022-08-19T01:27:39;14.50;;;12.43;;
14247;SDS011;7208;49.826;6.004;2022-08-19T01:30:07;14.27;;;12.97;;
14247;SDS011;7208;49.826;6.004;2022-08-19T01:32:33;14.33;;;12.23;;
14247;SDS011;7208;49.826;6.004;2022-08-19T01:35:00;14.50;;;13.10;;
14247;SDS011;7208;49.826;6.004;2022-08-19T01:37:27;15.50;;;13.53;;
14247;SDS011;7208;49.826;6.004;2022-08-19T01:39:53;14.13;;;12.77;;
14247;SDS011;7208;49.826;6.004;2022-08-19T01:42:19;14.43;;;13.13;;
14247;SDS011;7208;49.826;6.004;2022-08-19T01:44:47;14.93;;;13.33;;
14247;SDS011;7208;49.826;6.004;2022-08-19T01:47:13;15.57;;;14.07;;
14247;SDS011;7208;49.826;6.004;2022-08-19T01:49:41;15.13;;;13.60;;
14247;SDS011;7208;49.826;6.004;2022-08-19T01:52:07;16.10;;;14.40;;
14247;SDS011;7208;49.826;6.004;2022-08-19T01:54:33;18.37;;;16.23;;
14247;SDS011;7208;49.826;6.004;2022-08-19T01:57:09;19.10;;;15.53;;
14247;SDS011;7208;49.826;6.004;2022-08-19T01:59:36;18.00;;;16.10;;
14247;SDS011;7208;49.826;6.004;2022-08-19T02:02:04;19.00;;;16.20;;
14247;SDS011;7208;49.826;6.004;2022-08-19T02:04:34;21.07;;;17.20;;
14247;SDS011;7208;49.826;6.004;2022-08-19T02:07:00;18.10;;;15.93;;
14247;SDS011;7208;49.826;6.004;2022-08-19T02:09:26;19.53;;;17.07;;
14247;SDS011;7208;49.826;6.004;2022-08-19T02:11:52;24.13;;;17.17;;
14247;SDS011;7208;49.826;6.004;2022-08-19T02:14:18;20.80;;;16.47;;
14247;SDS011;7208;49.826;6.004;2022-08-19T02:16:44;17.97;;;15.90;;
14247;SDS011;7208;49.826;6.004;2022-08-19T02:19:10;20.43;;;16.63;;
14247;SDS011;7208;49.826;6.004;2022-08-19T02:21:36;18.77;;;16.20;;
14247;SDS011;7208;49.826;6.004;2022-08-19T02:24:02;16.63;;;14.93;;
14247;SDS011;7208;49.826;6.004;2022-08-19T02:26:29;18.10;;;16.20;;
14247;SDS011;7208;49.826;6.004;2022-08-19T02:28:55;20.90;;;15.50;;
14247;SDS011;7208;49.826;6.004;2022-08-19T02:31:22;19.33;;;15.80;;
14247;SDS011;7208;49.826;6.004;2022-08-19T02:33:49;19.87;;;15.47;;
14247;SDS011;7208;49.826;6.004;2022-08-19T02:36:16;18.80;;;14.97;;
14247;SDS011;7208;49.826;6.004;2022-08-19T02:38:42;16.17;;;14.47;;
14247;SDS011;7208;49.826;6.004;2022-08-19T02:41:13;18.43;;;16.13;;
14247;SDS011;7208;49.826;6.004;2022-08-19T02:43:39;19.73;;;16.73;;
14247;SDS011;7208;49.826;6.004;2022-08-19T02:46:16;17.27;;;15.57;;
14247;SDS011;7208;49.826;6.004;2022-08-19T02:48:43;18.97;;;15.87;;
14247;SDS011;7208;49.826;6.004;2022-08-19T02:51:09;18.27;;;15.90;;
14247;SDS011;7208;49.826;6.004;2022-08-19T02:53:40;16.43;;;14.73;;
14247;SDS011;7208;49.826;6.004;2022-08-19T02:56:07;17.20;;;15.33;;
14247;SDS011;7208;49.826;6.004;2022-08-19T02:58:33;18.60;;;15.97;;
14247;SDS011;7208;49.826;6.004;2022-08-19T03:00:59;17.33;;;15.63;;
14247;SDS011;7208;49.826;6.004;2022-08-19T03:03:25;16.03;;;14.30;;
14247;SDS011;7208;49.826;6.004;2022-08-19T03:05:51;17.20;;;14.63;;
14247;SDS011;7208;49.826;6.004;2022-08-19T03:08:17;17.90;;;16.07;;
14247;SDS011;7208;49.826;6.004;2022-08-19T03:10:44;18.53;;;15.67;;
14247;SDS011;7208;49.826;6.004;2022-08-19T03:13:15;21.63;;;17.07;;
14247;SDS011;7208;49.826;6.004;2022-08-19T03:15:45;18.37;;;15.87;;
14247;SDS011;7208;49.826;6.004;2022-08-19T03:18:11;19.43;;;16.80;;
14247;SDS011;7208;49.826;6.004;2022-08-19T03:20:44;17.60;;;15.93;;
14247;SDS011;7208;49.826;6.004;2022-08-19T03:23:11;20.17;;;17.30;;
14247;SDS011;7208;49.826;6.004;2022-08-19T03:25:41;20.33;;;17.67;;
14247;SDS011;7208;49.826;6.004;2022-08-19T03:28:08;22.50;;;17.63;;
14247;SDS011;7208;49.826;6.004;2022-08-19T03:30:34;21.97;;;17.10;;
14247;SDS011;7208;49.826;6.004;2022-08-19T03:33:00;18.10;;;16.20;;
14247;SDS011;7208;49.826;6.004;2022-08-19T03:35:27;20.73;;;18.20;;
14247;SDS011;7208;49.826;6.004;2022-08-19T03:37:53;20.57;;;17.33;;
14247;SDS011;7208;49.826;6.004;2022-08-19T03:40:19;23.30;;;19.17;;
14247;SDS011;7208;49.826;6.004;2022-08-19T03:42:45;18.83;;;16.80;;
14247;SDS011;7208;49.826;6.004;2022-08-19T03:45:11;22.58;;;19.52;;
14247;SDS011;7208;49.826;6.004;2022-08-19T03:47:37;24.33;;;20.40;;
14247;SDS011;7208;49.826;6.004;2022-08-19T03:50:04;22.20;;;18.43;;
14247;SDS011;7208;49.826;6.004;2022-08-19T03:52:30;24.47;;;16.63;;
14247;SDS011;7208;49.826;6.004;2022-08-19T03:54:56;20.83;;;18.37;;
14247;SDS011;7208;49.826;6.004;2022-08-19T03:57:22;19.27;;;17.33;;
14247;SDS011;7208;49.826;6.004;2022-08-19T03:59:48;23.93;;;19.57;;
14247;SDS011;7208;49.826;6.004;2022-08-19T04:02:14;27.47;;;19.40;;
14247;SDS011;7208;49.826;6.004;2022-08-19T04:04:41;20.43;;;17.33;;
14247;SDS011;7208;49.826;6.004;2022-08-19T04:07:08;24.87;;;18.83;;
14247;SDS011;7208;49.826;6.004;2022-08-19T04:09:34;22.20;;;18.30;;
14247;SDS011;7208;49.826;6.004;2022-08-19T04:12:05;20.03;;;18.00;;
14247;SDS011;7208;49.826;6.004;2022-08-19T04:14:31;21.50;;;18.47;;
14247;SDS011;7208;49.826;6.004;2022-08-19T04:16:59;20.20;;;18.07;;
14247;SDS011;7208;49.826;6.004;2022-08-19T04:19:25;24.27;;;21.80;;
14247;SDS011;7208;49.826;6.004;2022-08-19T04:21:52;21.47;;;19.17;;
14247;SDS011;7208;49.826;6.004;2022-08-19T04:24:19;18.57;;;16.67;;
14247;SDS011;7208;49.826;6.004;2022-08-19T04:26:46;19.33;;;17.30;;
14247;SDS011;7208;49.826;6.004;2022-08-19T04:29:20;18.33;;;16.43;;
14247;SDS011;7208;49.826;6.004;2022-08-19T04:31:47;21.27;;;17.30;;
14247;SDS011;7208;49.826;6.004;2022-08-19T04:34:14;19.97;;;16.83;;
14247;SDS011;7208;49.826;6.004;2022-08-19T04:36:41;19.23;;;17.23;;
14247;SDS011;7208;49.826;6.004;2022-08-19T04:39:11;18.77;;;16.80;;
14247;SDS011;7208;49.826;6.004;2022-08-19T04:41:37;18.83;;;16.77;;
14247;SDS011;7208;49.826;6.004;2022-08-19T04:44:21;19.47;;;17.47;;
14247;SDS011;7208;49.826;6.004;2022-08-19T04:46:48;18.97;;;16.97;;
14247;SDS011;7208;49.826;6.004;2022-08-19T04:49:15;19.17;;;16.20;;
14247;SDS011;7208;49.826;6.004;2022-08-19T04:51:42;18.80;;;16.07;;
14247;SDS011;7208;49.826;6.004;2022-08-19T04:54:08;19.10;;;16.97;;
14247;SDS011;7208;49.826;6.004;2022-08-19T04:56:35;23.30;;;18.50;;
14247;SDS011;7208;49.826;6.004;2022-08-19T04:59:01;17.73;;;16.03;;
14247;SDS011;7208;49.826;6.004;2022-08-19T05:01:31;21.33;;;18.20;;
14247;SDS011;7208;49.826;6.004;2022-08-19T05:03:58;20.87;;;18.60;;
14247;SDS011;7208;49.826;6.004;2022-08-19T05:06:25;22.57;;;19.03;;
14247;SDS011;7208;49.826;6.004;2022-08-19T05:08:52;20.40;;;18.17;;
14247;SDS011;7208;49.826;6.004;2022-08-19T05:11:21;22.20;;;19.30;;
14247;SDS011;7208;49.826;6.004;2022-08-19T05:13:47;24.47;;;18.27;;
14247;SDS011;7208;49.826;6.004;2022-08-19T05:16:14;23.63;;;19.07;;
14247;SDS011;7208;49.826;6.004;2022-08-19T05:18:41;23.00;;;19.47;;
14247;SDS011;7208;49.826;6.004;2022-08-19T05:21:26;28.43;;;22.60;;
14247;SDS011;7208;49.826;6.004;2022-08-19T05:24:11;28.83;;;22.23;;
14247;SDS011;7208;49.826;6.004;2022-08-19T05:26:42;28.40;;;23.03;;
14247;SDS011;7208;49.826;6.004;2022-08-19T05:29:08;26.03;;;21.40;;
14247;SDS011;7208;49.826;6.004;2022-08-19T05:31:35;27.37;;;21.93;;
14247;SDS011;7208;49.826;6.004;2022-08-19T05:34:03;30.17;;;22.80;;
14247;SDS011;7208;49.826;6.004;2022-08-19T05:36:33;31.40;;;22.07;;
14247;SDS011;7208;49.826;6.004;2022-08-19T05:38:59;28.40;;;22.17;;
14247;SDS011;7208;49.826;6.004;2022-08-19T05:41:25;26.23;;;21.50;;
14247;SDS011;7208;49.826;6.004;2022-08-19T05:43:55;29.10;;;22.03;;
14247;SDS011;7208;49.826;6.004;2022-08-19T05:46:21;30.47;;;22.20;;
14247;SDS011;7208;49.826;6.004;2022-08-19T05:48:47;26.80;;;21.83;;
14247;SDS011;7208;49.826;6.004;2022-08-19T05:51:13;26.67;;;21.83;;
14247;SDS011;7208;49.826;6.004;2022-08-19T05:53:40;24.70;;;21.97;;
14247;SDS011;7208;49.826;6.004;2022-08-19T05:56:10;26.23;;;22.07;;
14247;SDS011;7208;49.826;6.004;2022-08-19T05:58:37;27.00;;;22.40;;
14247;SDS011;7208;49.826;6.004;2022-08-19T06:01:04;28.63;;;23.17;;
14247;SDS011;7208;49.826;6.004;2022-08-19T06:03:34;27.07;;;23.00;;
14247;SDS011;7208;49.826;6.004;2022-08-19T06:06:02;28.27;;;23.50;;
14247;SDS011;7208;49.826;6.004;2022-08-19T06:08:28;27.83;;;23.13;;
14247;SDS011;7208;49.826;6.004;2022-08-19T06:10:55;29.33;;;24.70;;
14247;SDS011;7208;49.826;6.004;2022-08-19T06:13:21;28.10;;;23.50;;
14247;SDS011;7208;49.826;6.004;2022-08-19T06:15:48;31.33;;;24.97;;
14247;SDS011;7208;49.826;6.004;2022-08-19T06:18:14;29.23;;;25.13;;
14247;SDS011;7208;49.826;6.004;2022-08-19T06:20:41;30.47;;;26.30;;
14247;SDS011;7208;49.826;6.004;2022-08-19T06:23:08;31.07;;;25.00;;
14247;SDS011;7208;49.826;6.004;2022-08-19T06:25:34;35.40;;;27.23;;
14247;SDS011;7208;49.826;6.004;2022-08-19T06:28:00;31.20;;;27.80;;
14247;SDS011;7208;49.826;6.004;2022-08-19T06:30:26;32.27;;;27.17;;
14247;SDS011;7208;49.826;6.004;2022-08-19T06:32:52;30.73;;;26.40;;
14247;SDS011;7208;49.826;6.004;2022-08-19T06:35:19;32.17;;;26.07;;
14247;SDS011;7208;49.826;6.004;2022-08-19T06:37:45;30.50;;;25.03;;
14247;SDS011;7208;49.826;6.004;2022-08-19T06:40:11;32.83;;;26.67;;
14247;SDS011;7208;49.826;6.004;2022-08-19T06:42:38;38.33;;;29.57;;
14247;SDS011;7208;49.826;6.004;2022-08-19T06:45:04;42.57;;;29.97;;
14247;SDS011;7208;49.826;6.004;2022-08-19T06:47:33;43.43;;;29.90;;
14247;SDS011;7208;49.826;6.004;2022-08-19T06:49:59;38.33;;;28.73;;
14247;SDS011;7208;49.826;6.004;2022-08-19T06:52:28;42.40;;;30.40;;
14247;SDS011;7208;49.826;6.004;2022-08-19T06:54:54;46.10;;;30.90;;
14247;SDS011;7208;49.826;6.004;2022-08-19T06:57:21;46.87;;;30.47;;
14247;SDS011;7208;49.826;6.004;2022-08-19T06:59:47;46.80;;;31.63;;
14247;SDS011;7208;49.826;6.004;2022-08-19T07:02:13;47.00;;;30.50;;
14247;SDS011;7208;49.826;6.004;2022-08-19T07:04:40;45.30;;;30.77;;
14247;SDS011;7208;49.826;6.004;2022-08-19T07:07:07;50.60;;;32.57;;
14247;SDS011;7208;49.826;6.004;2022-08-19T07:09:38;46.33;;;29.67;;
14247;SDS011;7208;49.826;6.004;2022-08-19T07:12:05;45.00;;;30.17;;
14247;SDS011;7208;49.826;6.004;2022-08-19T07:14:33;44.90;;;30.07;;
14247;SDS011;7208;49.826;6.004;2022-08-19T07:17:03;47.13;;;30.57;;
14247;SDS011;7208;49.826;6.004;2022-08-19T07:19:29;50.77;;;30.50;;
14247;SDS011;7208;49.826;6.004;2022-08-19T07:21:56;43.13;;;30.20;;
14247;SDS011;7208;49.826;6.004;2022-08-19T07:24:24;45.57;;;30.93;;
14247;SDS011;7208;49.826;6.004;2022-08-19T07:26:53;40.33;;;30.00;;
14247;SDS011;7208;49.826;6.004;2022-08-19T07:29:19;43.20;;;32.03;;
14247;SDS011;7208;49.826;6.004;2022-08-19T07:31:48;42.03;;;30.10;;
14247;SDS011;7208;49.826;6.004;2022-08-19T07:34:14;40.30;;;29.60;;
14247;SDS011;7208;49.826;6.004;2022-08-19T07:36:40;45.23;;;31.77;;
14247;SDS011;7208;49.826;6.004;2022-08-19T07:39:08;41.57;;;30.67;;
14247;SDS011;7208;49.826;6.004;2022-08-19T07:41:35;43.17;;;31.97;;
14247;SDS011;7208;49.826;6.004;2022-08-19T07:44:02;45.63;;;32.23;;
14247;SDS011;7208;49.826;6.004;2022-08-19T07:46:33;44.80;;;31.27;;
14247;SDS011;7208;49.826;6.004;2022-08-19T07:48:59;39.50;;;29.43;;
14247;SDS011;7208;49.826;6.004;2022-08-19T07:51:26;40.40;;;30.27;;
14247;SDS011;7208;49.826;6.004;2022-08-19T07:53:52;45.13;;;31.07;;
14247;SDS011;7208;49.826;6.004;2022-08-19T07:56:18;37.90;;;29.33;;
14247;SDS011;7208;49.826;6.004;2022-08-19T07:58:46;40.60;;;30.13;;
14247;SDS011;7208;49.826;6.004;2022-08-19T08:01:15;42.60;;;30.67;;
14247;SDS011;7208;49.826;6.004;2022-08-19T08:03:42;38.80;;;29.33;;
14247;SDS011;7208;49.826;6.004;2022-08-19T08:06:27;39.53;;;29.90;;
14247;SDS011;7208;49.826;6.004;2022-08-19T08:09:14;39.17;;;28.93;;
14247;SDS011;7208;49.826;6.004;2022-08-19T08:14:21;33.83;;;27.00;;
14247;SDS011;7208;49.826;6.004;2022-08-19T08:16:48;35.43;;;27.80;;
14247;SDS011;7208;49.826;6.004;2022-08-19T08:19:17;31.83;;;25.93;;
14247;SDS011;7208;49.826;6.004;2022-08-19T08:21:43;33.60;;;26.17;;
14247;SDS011;7208;49.826;6.004;2022-08-19T08:24:09;32.37;;;26.37;;
14247;SDS011;7208;49.826;6.004;2022-08-19T08:26:35;29.80;;;23.73;;
14247;SDS011;7208;49.826;6.004;2022-08-19T08:29:02;28.93;;;22.40;;
14247;SDS011;7208;49.826;6.004;2022-08-19T08:31:28;25.23;;;21.70;;
14247;SDS011;7208;49.826;6.004;2022-08-19T08:33:54;29.33;;;23.30;;
14247;SDS011;7208;49.826;6.004;2022-08-19T08:36:20;29.17;;;24.70;;
14247;SDS011;7208;49.826;6.004;2022-08-19T08:38:46;29.53;;;23.57;;
14247;SDS011;7208;49.826;6.004;2022-08-19T08:43:44;28.93;;;23.50;;
14247;SDS011;7208;49.826;6.004;2022-08-19T08:51:20;27.40;;;22.23;;
14247;SDS011;7208;49.826;6.004;2022-08-19T08:53:49;28.67;;;22.47;;
14247;SDS011;7208;49.826;6.004;2022-08-19T08:56:16;27.47;;;23.03;;
14247;SDS011;7208;49.826;6.004;2022-08-19T08:58:45;24.63;;;21.83;;
14247;SDS011;7208;49.826;6.004;2022-08-19T09:01:13;23.63;;;20.97;;
14247;SDS011;7208;49.826;6.004;2022-08-19T09:03:40;22.87;;;20.37;;
14247;SDS011;7208;49.826;6.004;2022-08-19T09:06:10;21.67;;;19.37;;
14247;SDS011;7208;49.826;6.004;2022-08-19T09:16:33;19.63;;;17.53;;
14247;SDS011;7208;49.826;6.004;2022-08-19T09:19:03;20.87;;;18.57;;
14247;SDS011;7208;49.826;6.004;2022-08-19T09:21:30;22.23;;;19.77;;
14247;SDS011;7208;49.826;6.004;2022-08-19T09:23:57;19.50;;;17.57;;
14247;SDS011;7208;49.826;6.004;2022-08-19T09:26:24;21.37;;;19.10;;
14247;SDS011;7208;49.826;6.004;2022-08-19T09:28:52;20.90;;;18.53;;
14247;SDS011;7208;49.826;6.004;2022-08-19T09:31:20;18.60;;;16.80;;
14247;SDS011;7208;49.826;6.004;2022-08-19T09:33:47;19.13;;;17.13;;
14247;SDS011;7208;49.826;6.004;2022-08-19T09:36:14;16.80;;;15.37;;
14247;SDS011;7208;49.826;6.004;2022-08-19T09:38:41;19.57;;;16.83;;
14247;SDS011;7208;49.826;6.004;2022-08-19T09:41:08;20.40;;;18.43;;
14247;SDS011;7208;49.826;6.004;2022-08-19T09:43:37;20.43;;;18.37;;
14247;SDS011;7208;49.826;6.004;2022-08-19T09:46:03;19.40;;;17.53;;
14247;SDS011;7208;49.826;6.004;2022-08-19T09:48:31;19.33;;;17.73;;
14247;SDS011;7208;49.826;6.004;2022-08-19T09:51:08;20.87;;;18.80;;
14247;SDS011;7208;49.826;6.004;2022-08-19T09:53:35;20.27;;;18.37;;
14247;SDS011;7208;49.826;6.004;2022-08-19T09:56:02;20.07;;;18.17;;
14247;SDS011;7208;49.826;6.004;2022-08-19T09:58:28;22.07;;;19.93;;
14247;SDS011;7208;49.826;6.004;2022-08-19T10:00:55;20.33;;;18.40;;
14247;SDS011;7208;49.826;6.004;2022-08-19T10:03:21;18.50;;;17.00;;
14247;SDS011;7208;49.826;6.004;2022-08-19T10:05:48;20.03;;;18.13;;
14247;SDS011;7208;49.826;6.004;2022-08-19T10:08:15;18.13;;;16.50;;
14247;SDS011;7208;49.826;6.004;2022-08-19T10:10:41;19.27;;;17.67;;
14247;SDS011;7208;49.826;6.004;2022-08-19T10:13:11;20.10;;;18.10;;
14247;SDS011;7208;49.826;6.004;2022-08-19T10:15:37;18.70;;;17.00;;
14247;SDS011;7208;49.826;6.004;2022-08-19T10:18:06;19.37;;;17.57;;
14247;SDS011;7208;49.826;6.004;2022-08-19T10:20:33;17.33;;;15.83;;
14247;SDS011;7208;49.826;6.004;2022-08-19T10:23:01;18.10;;;16.43;;
14247;SDS011;7208;49.826;6.004;2022-08-19T10:25:27;19.60;;;17.93;;
14247;SDS011;7208;49.826;6.004;2022-08-19T10:27:54;19.03;;;17.37;;
14247;SDS011;7208;49.826;6.004;2022-08-19T10:30:20;19.70;;;17.67;;
14247;SDS011;7208;49.826;6.004;2022-08-19T10:32:46;18.17;;;16.57;;
14247;SDS011;7208;49.826;6.004;2022-08-19T10:35:12;14.77;;;13.47;;
14247;SDS011;7208;49.826;6.004;2022-08-19T10:37:39;14.68;;;13.57;;
14247;SDS011;7208;49.826;6.004;2022-08-19T10:40:06;11.30;;;10.40;;
14247;SDS011;7208;49.826;6.004;2022-08-19T10:42:36;10.50;;;9.70;;
14247;SDS011;7208;49.826;6.004;2022-08-19T10:45:03;10.73;;;9.83;;
14247;SDS011;7208;49.826;6.004;2022-08-19T10:47:31;11.53;;;10.63;;
14247;SDS011;7208;49.826;6.004;2022-08-19T10:49:57;13.43;;;12.33;;
14247;SDS011;7208;49.826;6.004;2022-08-19T10:52:43;13.20;;;12.07;;
14247;SDS011;7208;49.826;6.004;2022-08-19T10:55:09;9.10;;;8.40;;
14247;SDS011;7208;49.826;6.004;2022-08-19T10:57:54;5.37;;;4.97;;
14247;SDS011;7208;49.826;6.004;2022-08-19T11:00:20;6.20;;;5.73;;
14247;SDS011;7208;49.826;6.004;2022-08-19T11:02:47;7.10;;;6.50;;
14247;SDS011;7208;49.826;6.004;2022-08-19T11:05:14;8.97;;;8.27;;
14247;SDS011;7208;49.826;6.004;2022-08-19T11:07:40;9.37;;;8.57;;
14247;SDS011;7208;49.826;6.004;2022-08-19T11:10:08;8.17;;;7.57;;
14247;SDS011;7208;49.826;6.004;2022-08-19T11:12:38;8.20;;;7.50;;
14247;SDS011;7208;49.826;6.004;2022-08-19T11:15:05;10.90;;;9.90;;
14247;SDS011;7208;49.826;6.004;2022-08-19T11:17:33;9.63;;;8.93;;
14247;SDS011;7208;49.826;6.004;2022-08-19T11:19:59;7.82;;;7.18;;
14247;SDS011;7208;49.826;6.004;2022-08-19T11:22:28;8.40;;;7.72;;
14247;SDS011;7208;49.826;6.004;2022-08-19T11:24:54;8.70;;;8.00;;
14247;SDS011;7208;49.826;6.004;2022-08-19T11:27:20;8.43;;;7.72;;
14247;SDS011;7208;49.826;6.004;2022-08-19T11:29:46;8.88;;;8.18;;
14247;SDS011;7208;49.826;6.004;2022-08-19T11:32:12;9.37;;;8.67;;
14247;SDS011;7208;49.826;6.004;2022-08-19T11:34:40;9.17;;;8.37;;
14247;SDS011;7208;49.826;6.004;2022-08-19T11:37:06;8.05;;;7.38;;
14247;SDS011;7208;49.826;6.004;2022-08-19T11:39:33;8.27;;;7.68;;
14247;SDS011;7208;49.826;6.004;2022-08-19T11:42:00;8.15;;;7.45;;
14247;SDS011;7208;49.826;6.004;2022-08-19T11:44:28;8.45;;;7.75;;
14247;SDS011;7208;49.826;6.004;2022-08-19T11:46:55;8.20;;;7.50;;
14247;SDS011;7208;49.826;6.004;2022-08-19T11:49:21;9.00;;;8.30;;
14247;SDS011;7208;49.826;6.004;2022-08-19T11:51:47;9.13;;;8.33;;
14247;SDS011;7208;49.826;6.004;2022-08-19T11:54:15;7.87;;;7.17;;
14247;SDS011;7208;49.826;6.004;2022-08-19T11:56:42;8.60;;;6.87;;
14247;SDS011;7208;49.826;6.004;2022-08-19T11:59:08;7.87;;;7.17;;
14247;SDS011;7208;49.826;6.004;2022-08-19T12:01:35;6.60;;;6.00;;
14247;SDS011;7208;49.826;6.004;2022-08-19T12:04:02;4.97;;;4.57;;
14247;SDS011;7208;49.826;6.004;2022-08-19T12:06:30;3.70;;;3.40;;
14247;SDS011;7208;49.826;6.004;2022-08-19T12:09:00;4.90;;;4.50;;
14247;SDS011;7208;49.826;6.004;2022-08-19T12:11:26;3.90;;;3.60;;
14247;SDS011;7208;49.826;6.004;2022-08-19T12:13:52;3.33;;;3.13;;
14247;SDS011;7208;49.826;6.004;2022-08-19T12:16:23;3.95;;;3.50;;
14247;SDS011;7208;49.826;6.004;2022-08-19T12:18:50;5.60;;;4.95;;
14247;SDS011;7208;49.826;6.004;2022-08-19T12:21:18;5.30;;;4.90;;
14247;SDS011;7208;49.826;6.004;2022-08-19T12:23:46;4.03;;;3.73;;
14247;SDS011;7208;49.826;6.004;2022-08-19T12:26:12;4.90;;;4.50;;
14247;SDS011;7208;49.826;6.004;2022-08-19T12:28:38;4.30;;;4.00;;
14247;SDS011;7208;49.826;6.004;2022-08-19T12:31:05;3.83;;;3.53;;
14247;SDS011;7208;49.826;6.004;2022-08-19T12:33:31;3.30;;;3.10;;
14247;SDS011;7208;49.826;6.004;2022-08-19T12:36:04;2.70;;;2.50;;
14247;SDS011;7208;49.826;6.004;2022-08-19T12:38:30;2.60;;;2.40;;
14247;SDS011;7208;49.826;6.004;2022-08-19T12:40:57;2.40;;;2.30;;
14247;SDS011;7208;49.826;6.004;2022-08-19T12:43:23;2.60;;;2.40;;
14247;SDS011;7208;49.826;6.004;2022-08-19T12:45:49;1.97;;;1.13;;
14247;SDS011;7208;49.826;6.004;2022-08-19T12:48:16;1.00;;;1.00;;
14247;SDS011;7208;49.826;6.004;2022-08-19T12:50:43;1.17;;;1.10;;
14247;SDS011;7208;49.826;6.004;2022-08-19T12:53:13;1.40;;;1.30;;
14247;SDS011;7208;49.826;6.004;2022-08-19T12:55:39;1.20;;;1.20;;
14247;SDS011;7208;49.826;6.004;2022-08-19T12:58:05;1.10;;;1.00;;
14247;SDS011;7208;49.826;6.004;2022-08-19T13:00:32;1.33;;;1.05;;
14247;SDS011;7208;49.826;6.004;2022-08-19T13:02:59;1.02;;;0.73;;
14247;SDS011;7208;49.826;6.004;2022-08-19T13:05:26;3.23;;;0.70;;
14247;SDS011;7208;49.826;6.004;2022-08-19T13:07:53;0.87;;;0.80;;
14247;SDS011;7208;49.826;6.004;2022-08-19T13:10:22;0.60;;;0.60;;
14247;SDS011;7208;49.826;6.004;2022-08-19T13:12:49;0.60;;;0.60;;
14247;SDS011;7208;49.826;6.004;2022-08-19T13:15:15;0.50;;;0.50;;
14247;SDS011;7208;49.826;6.004;2022-08-19T13:17:45;0.60;;;0.60;;
14247;SDS011;7208;49.826;6.004;2022-08-19T13:20:13;0.57;;;0.57;;
14247;SDS011;7208;49.826;6.004;2022-08-19T13:22:40;0.50;;;0.50;;
14247;SDS011;7208;49.826;6.004;2022-08-19T13:25:07;0.60;;;0.60;;
14247;SDS011;7208;49.826;6.004;2022-08-19T13:27:34;0.50;;;0.50;;
14247;SDS011;7208;49.826;6.004;2022-08-19T13:30:00;0.63;;;0.63;;
14247;SDS011;7208;49.826;6.004;2022-08-19T13:32:46;0.70;;;0.53;;
14247;SDS011;7208;49.826;6.004;2022-08-19T13:35:31;0.40;;;0.40;;
14247;SDS011;7208;49.826;6.004;2022-08-19T13:37:57;0.23;;;0.23;;
14247;SDS011;7208;49.826;6.004;2022-08-19T13:40:23;0.40;;;0.40;;
14247;SDS011;7208;49.826;6.004;2022-08-19T13:42:51;0.80;;;0.30;;
14247;SDS011;7208;49.826;6.004;2022-08-19T13:45:19;0.43;;;0.40;;
14247;SDS011;7208;49.826;6.004;2022-08-19T13:47:47;1.73;;;0.50;;
14247;SDS011;7208;49.826;6.004;2022-08-19T13:50:14;0.90;;;0.37;;
14247;SDS011;7208;49.826;6.004;2022-08-19T13:52:40;0.50;;;0.50;;
14247;SDS011;7208;49.826;6.004;2022-08-19T13:55:07;0.33;;;0.33;;
14247;SDS011;7208;49.826;6.004;2022-08-19T13:57:34;0.30;;;0.30;;
14247;SDS011;7208;49.826;6.004;2022-08-19T14:00:00;1.33;;;0.40;;
14247;SDS011;7208;49.826;6.004;2022-08-19T14:02:27;0.40;;;0.40;;
14247;SDS011;7208;49.826;6.004;2022-08-19T14:04:53;0.50;;;0.30;;
14247;SDS011;7208;49.826;6.004;2022-08-19T14:07:19;1.33;;;0.40;;
14247;SDS011;7208;49.826;6.004;2022-08-19T14:09:47;0.33;;;0.33;;
14247;SDS011;7208;49.826;6.004;2022-08-19T14:12:13;0.70;;;0.30;;
14247;SDS011;7208;49.826;6.004;2022-08-19T14:14:39;0.83;;;0.20;;
14247;SDS011;7208;49.826;6.004;2022-08-19T14:17:06;0.40;;;0.20;;
14247;SDS011;7208;49.826;6.004;2022-08-19T14:19:32;0.20;;;0.20;;
14247;SDS011;7208;49.826;6.004;2022-08-19T14:21:58;0.20;;;0.20;;
14247;SDS011;7208;49.826;6.004;2022-08-19T14:24:24;0.20;;;0.20;;
14247;SDS011;7208;49.826;6.004;2022-08-19T14:26:50;0.27;;;0.20;;
14247;SDS011;7208;49.826;6.004;2022-08-19T14:29:16;0.30;;;0.30;;
14247;SDS011;7208;49.826;6.004;2022-08-19T14:31:42;0.20;;;0.20;;
14247;SDS011;7208;49.826;6.004;2022-08-19T14:34:09;0.37;;;0.30;;
14247;SDS011;7208;49.826;6.004;2022-08-19T14:36:35;0.23;;;0.20;;
14247;SDS011;7208;49.826;6.004;2022-08-19T14:39:01;0.20;;;0.20;;
14247;SDS011;7208;49.826;6.004;2022-08-19T14:41:27;0.30;;;0.30;;
14247;SDS011;7208;49.826;6.004;2022-08-19T14:43:55;0.30;;;0.30;;
14247;SDS011;7208;49.826;6.004;2022-08-19T14:46:23;1.03;;;0.30;;
14247;SDS011;7208;49.826;6.004;2022-08-19T14:48:50;0.30;;;0.30;;
14247;SDS011;7208;49.826;6.004;2022-08-19T14:51:17;0.20;;;0.20;;
14247;SDS011;7208;49.826;6.004;2022-08-19T14:53:43;0.20;;;0.17;;
14247;SDS011;7208;49.826;6.004;2022-08-19T14:56:10;0.30;;;0.30;;
14247;SDS011;7208;49.826;6.004;2022-08-19T14:58:37;0.57;;;0.30;;
14247;SDS011;7208;49.826;6.004;2022-08-19T15:01:05;0.30;;;0.30;;
14247;SDS011;7208;49.826;6.004;2022-08-19T15:03:31;0.20;;;0.20;;